sensor_id;sensor_type;location;lat;lon;timestamp;P1;durP1;ratioP1;P2;durP2;ratioP2
28160;SDS011;15448;51.956;7.670;2022-08-06T00:02:11;14.60;;;14.10;;
28160;SDS011;15448;51.956;7.670;2022-08-06T00:04:37;15.00;;;14.37;;
28160;SDS011;15448;51.956;7.670;2022-08-06T00:07:03;16.30;;;14.93;;
28160;SDS011;15448;51.956;7.670;2022-08-06T00:09:29;14.47;;;13.77;;
28160;SDS011;15448;51.956;7.670;2022-08-06T00:11:59;15.57;;;13.80;;
28160;SDS011;15448;51.956;7.670;2022-08-06T00:14:26;14.83;;;14.17;;
28160;SDS011;15448;51.956;7.670;2022-08-06T00:16:52;14.17;;;13.77;;
28160;SDS011;15448;51.956;7.670;2022-08-06T00:19:18;15.20;;;14.40;;
28160;SDS011;15448;51.956;7.670;2022-08-06T00:21:43;14.87;;;14.23;;
28160;SDS011;15448;51.956;7.670;2022-08-06T00:24:09;14.50;;;13.80;;
28160;SDS011;15448;51.956;7.670;2022-08-06T00:26:35;14.60;;;14.00;;
28160;SDS011;15448;51.956;7.670;2022-08-06T00:29:02;14.57;;;13.97;;
28160;SDS011;15448;51.956;7.670;2022-08-06T00:31:28;15.77;;;14.27;;
28160;SDS011;15448;51.956;7.670;2022-08-06T00:33:54;14.93;;;14.30;;
28160;SDS011;15448;51.956;7.670;2022-08-06T00:36:21;14.70;;;14.20;;
28160;SDS011;15448;51.956;7.670;2022-08-06T00:38:51;13.83;;;13.13;;
28160;SDS011;15448;51.956;7.670;2022-08-06T00:41:17;14.50;;;13.97;;
28160;SDS011;15448;51.956;7.670;2022-08-06T00:43:43;15.67;;;14.33;;
28160;SDS011;15448;51.956;7.670;2022-08-06T00:46:10;14.30;;;13.40;;
28160;SDS011;15448;51.956;7.670;2022-08-06T00:48:35;16.43;;;15.37;;
28160;SDS011;15448;51.956;7.670;2022-08-06T00:51:01;15.37;;;14.70;;
28160;SDS011;15448;51.956;7.670;2022-08-06T00:53:27;14.80;;;14.10;;
28160;SDS011;15448;51.956;7.670;2022-08-06T00:55:53;15.03;;;14.20;;
28160;SDS011;15448;51.956;7.670;2022-08-06T00:58:18;14.60;;;14.10;;
28160;SDS011;15448;51.956;7.670;2022-08-06T01:00:44;14.80;;;14.20;;
28160;SDS011;15448;51.956;7.670;2022-08-06T01:03:10;14.30;;;13.70;;
28160;SDS011;15448;51.956;7.670;2022-08-06T01:05:36;14.43;;;13.93;;
28160;SDS011;15448;51.956;7.670;2022-08-06T01:08:02;14.10;;;13.50;;
28160;SDS011;15448;51.956;7.670;2022-08-06T01:10:28;15.10;;;14.50;;
28160;SDS011;15448;51.956;7.670;2022-08-06T01:12:53;14.70;;;14.10;;
28160;SDS011;15448;51.956;7.670;2022-08-06T01:15:19;14.73;;;13.97;;
28160;SDS011;15448;51.956;7.670;2022-08-06T01:17:59;15.47;;;14.50;;
28160;SDS011;15448;51.956;7.670;2022-08-06T01:23:28;15.07;;;14.47;;
28160;SDS011;15448;51.956;7.670;2022-08-06T01:29:11;14.57;;;14.07;;
28160;SDS011;15448;51.956;7.670;2022-08-06T01:31:43;14.20;;;13.70;;
28160;SDS011;15448;51.956;7.670;2022-08-06T01:34:23;15.37;;;14.33;;
28160;SDS011;15448;51.956;7.670;2022-08-06T01:37:00;15.07;;;14.43;;
28160;SDS011;15448;51.956;7.670;2022-08-06T01:39:34;14.83;;;14.03;;
28160;SDS011;15448;51.956;7.670;2022-08-06T01:42:02;14.47;;;13.87;;
28160;SDS011;15448;51.956;7.670;2022-08-06T01:44:31;14.83;;;14.23;;
28160;SDS011;15448;51.956;7.670;2022-08-06T01:47:10;14.70;;;14.10;;
28160;SDS011;15448;51.956;7.670;2022-08-06T01:49:37;14.73;;;14.20;;
28160;SDS011;15448;51.956;7.670;2022-08-06T01:52:05;15.37;;;14.53;;
28160;SDS011;15448;51.956;7.670;2022-08-06T01:54:36;14.47;;;13.90;;
28160;SDS011;15448;51.956;7.670;2022-08-06T01:57:04;14.93;;;14.23;;
28160;SDS011;15448;51.956;7.670;2022-08-06T01:59:32;14.70;;;14.10;;
28160;SDS011;15448;51.956;7.670;2022-08-06T02:02:00;15.47;;;14.67;;
28160;SDS011;15448;51.956;7.670;2022-08-06T02:04:29;14.90;;;14.20;;
28160;SDS011;15448;51.956;7.670;2022-08-06T02:06:59;15.17;;;14.13;;
28160;SDS011;15448;51.956;7.670;2022-08-06T02:09:26;14.17;;;13.67;;
28160;SDS011;15448;51.956;7.670;2022-08-06T02:12:26;15.23;;;14.10;;
28160;SDS011;15448;51.956;7.670;2022-08-06T02:14:52;15.10;;;14.30;;
28160;SDS011;15448;51.956;7.670;2022-08-06T02:17:23;14.93;;;14.33;;
28160;SDS011;15448;51.956;7.670;2022-08-06T02:19:51;15.03;;;14.37;;
28160;SDS011;15448;51.956;7.670;2022-08-06T02:22:19;14.97;;;14.27;;
28160;SDS011;15448;51.956;7.670;2022-08-06T02:24:46;15.43;;;14.63;;
28160;SDS011;15448;51.956;7.670;2022-08-06T02:27:13;15.37;;;14.63;;
28160;SDS011;15448;51.956;7.670;2022-08-06T02:29:41;15.50;;;14.80;;
28160;SDS011;15448;51.956;7.670;2022-08-06T02:32:08;15.20;;;14.60;;
28160;SDS011;15448;51.956;7.670;2022-08-06T02:34:36;14.70;;;14.20;;
28160;SDS011;15448;51.956;7.670;2022-08-06T02:39:40;15.23;;;14.63;;
28160;SDS011;15448;51.956;7.670;2022-08-06T02:42:16;16.70;;;14.97;;
28160;SDS011;15448;51.956;7.670;2022-08-06T02:44:52;15.10;;;14.50;;
28160;SDS011;15448;51.956;7.670;2022-08-06T02:50:17;14.97;;;14.30;;
28160;SDS011;15448;51.956;7.670;2022-08-06T02:52:46;14.87;;;14.33;;
28160;SDS011;15448;51.956;7.670;2022-08-06T02:55:15;15.27;;;14.67;;
28160;SDS011;15448;51.956;7.670;2022-08-06T02:57:49;14.80;;;14.10;;
28160;SDS011;15448;51.956;7.670;2022-08-06T03:00:18;14.43;;;13.90;;
28160;SDS011;15448;51.956;7.670;2022-08-06T03:02:45;15.00;;;14.40;;
28160;SDS011;15448;51.956;7.670;2022-08-06T03:05:14;15.90;;;15.00;;
28160;SDS011;15448;51.956;7.670;2022-08-06T03:07:42;15.40;;;14.60;;
28160;SDS011;15448;51.956;7.670;2022-08-06T03:10:09;16.20;;;15.17;;
28160;SDS011;15448;51.956;7.670;2022-08-06T03:12:37;16.20;;;15.40;;
28160;SDS011;15448;51.956;7.670;2022-08-06T03:15:04;14.87;;;14.07;;
28160;SDS011;15448;51.956;7.670;2022-08-06T03:17:31;15.33;;;14.63;;
28160;SDS011;15448;51.956;7.670;2022-08-06T03:19:58;15.03;;;14.30;;
28160;SDS011;15448;51.956;7.670;2022-08-06T03:22:27;16.10;;;14.63;;
28160;SDS011;15448;51.956;7.670;2022-08-06T03:24:55;14.43;;;13.93;;
28160;SDS011;15448;51.956;7.670;2022-08-06T03:27:22;15.10;;;14.27;;
28160;SDS011;15448;51.956;7.670;2022-08-06T03:29:49;14.80;;;14.00;;
28160;SDS011;15448;51.956;7.670;2022-08-06T03:32:16;15.57;;;14.57;;
28160;SDS011;15448;51.956;7.670;2022-08-06T03:34:41;14.90;;;14.33;;
28160;SDS011;15448;51.956;7.670;2022-08-06T03:37:08;14.80;;;13.97;;
28160;SDS011;15448;51.956;7.670;2022-08-06T03:39:36;14.83;;;14.13;;
28160;SDS011;15448;51.956;7.670;2022-08-06T03:42:04;15.90;;;15.20;;
28160;SDS011;15448;51.956;7.670;2022-08-06T03:44:30;15.20;;;14.30;;
28160;SDS011;15448;51.956;7.670;2022-08-06T03:46:58;14.90;;;14.30;;
28160;SDS011;15448;51.956;7.670;2022-08-06T03:49:33;15.27;;;14.33;;
28160;SDS011;15448;51.956;7.670;2022-08-06T03:52:02;15.30;;;14.70;;
28160;SDS011;15448;51.956;7.670;2022-08-06T03:54:32;15.13;;;14.33;;
28160;SDS011;15448;51.956;7.670;2022-08-06T03:57:02;15.83;;;15.03;;
28160;SDS011;15448;51.956;7.670;2022-08-06T03:59:30;15.50;;;14.60;;
28160;SDS011;15448;51.956;7.670;2022-08-06T04:01:57;15.60;;;14.80;;
28160;SDS011;15448;51.956;7.670;2022-08-06T04:04:25;15.73;;;14.87;;
28160;SDS011;15448;51.956;7.670;2022-08-06T04:06:51;15.40;;;14.70;;
28160;SDS011;15448;51.956;7.670;2022-08-06T04:09:22;14.93;;;14.33;;
28160;SDS011;15448;51.956;7.670;2022-08-06T04:11:49;15.57;;;14.87;;
28160;SDS011;15448;51.956;7.670;2022-08-06T04:14:15;14.80;;;14.10;;
28160;SDS011;15448;51.956;7.670;2022-08-06T04:16:41;16.77;;;15.77;;
28160;SDS011;15448;51.956;7.670;2022-08-06T04:19:08;14.97;;;14.47;;
28160;SDS011;15448;51.956;7.670;2022-08-06T04:21:35;15.10;;;14.60;;
28160;SDS011;15448;51.956;7.670;2022-08-06T04:24:01;15.30;;;14.60;;
28160;SDS011;15448;51.956;7.670;2022-08-06T04:26:27;14.90;;;14.30;;
28160;SDS011;15448;51.956;7.670;2022-08-06T04:28:54;15.37;;;14.67;;
28160;SDS011;15448;51.956;7.670;2022-08-06T04:31:20;15.20;;;14.60;;
28160;SDS011;15448;51.956;7.670;2022-08-06T04:33:48;15.60;;;15.00;;
28160;SDS011;15448;51.956;7.670;2022-08-06T04:36:16;15.63;;;14.93;;
28160;SDS011;15448;51.956;7.670;2022-08-06T04:38:42;16.33;;;15.43;;
28160;SDS011;15448;51.956;7.670;2022-08-06T04:41:10;16.27;;;15.47;;
28160;SDS011;15448;51.956;7.670;2022-08-06T04:43:37;14.97;;;14.37;;
28160;SDS011;15448;51.956;7.670;2022-08-06T04:46:02;15.63;;;14.83;;
28160;SDS011;15448;51.956;7.670;2022-08-06T04:48:28;16.10;;;15.30;;
28160;SDS011;15448;51.956;7.670;2022-08-06T04:50:55;16.00;;;15.00;;
28160;SDS011;15448;51.956;7.670;2022-08-06T04:53:20;15.70;;;15.10;;
28160;SDS011;15448;51.956;7.670;2022-08-06T04:55:47;16.20;;;15.50;;
28160;SDS011;15448;51.956;7.670;2022-08-06T04:58:13;15.60;;;15.00;;
28160;SDS011;15448;51.956;7.670;2022-08-06T05:00:44;15.70;;;15.00;;
28160;SDS011;15448;51.956;7.670;2022-08-06T05:03:11;15.50;;;14.80;;
28160;SDS011;15448;51.956;7.670;2022-08-06T05:05:38;15.70;;;14.90;;
28160;SDS011;15448;51.956;7.670;2022-08-06T05:08:07;16.13;;;15.03;;
28160;SDS011;15448;51.956;7.670;2022-08-06T05:10:37;15.47;;;14.80;;
28160;SDS011;15448;51.956;7.670;2022-08-06T05:13:10;15.80;;;14.93;;
28160;SDS011;15448;51.956;7.670;2022-08-06T05:15:40;15.67;;;15.03;;
28160;SDS011;15448;51.956;7.670;2022-08-06T05:18:12;16.50;;;15.40;;
28160;SDS011;15448;51.956;7.670;2022-08-06T05:20:41;15.37;;;14.67;;
28160;SDS011;15448;51.956;7.670;2022-08-06T05:23:15;16.80;;;15.37;;
28160;SDS011;15448;51.956;7.670;2022-08-06T05:25:49;16.53;;;15.43;;
28160;SDS011;15448;51.956;7.670;2022-08-06T05:28:15;15.70;;;14.77;;
28160;SDS011;15448;51.956;7.670;2022-08-06T05:30:41;15.97;;;15.10;;
28160;SDS011;15448;51.956;7.670;2022-08-06T05:33:09;16.03;;;15.20;;
28160;SDS011;15448;51.956;7.670;2022-08-06T05:35:34;16.13;;;15.33;;
28160;SDS011;15448;51.956;7.670;2022-08-06T05:38:00;15.77;;;15.07;;
28160;SDS011;15448;51.956;7.670;2022-08-06T05:40:26;15.33;;;14.50;;
28160;SDS011;15448;51.956;7.670;2022-08-06T05:42:58;14.90;;;14.30;;
28160;SDS011;15448;51.956;7.670;2022-08-06T05:45:24;15.23;;;14.63;;
28160;SDS011;15448;51.956;7.670;2022-08-06T05:47:51;15.10;;;14.30;;
28160;SDS011;15448;51.956;7.670;2022-08-06T05:50:18;16.47;;;15.57;;
28160;SDS011;15448;51.956;7.670;2022-08-06T05:55:39;15.60;;;14.83;;
28160;SDS011;15448;51.956;7.670;2022-08-06T05:58:28;15.63;;;14.80;;
28160;SDS011;15448;51.956;7.670;2022-08-06T06:00:58;15.23;;;14.43;;
28160;SDS011;15448;51.956;7.670;2022-08-06T06:03:26;16.13;;;15.13;;
28160;SDS011;15448;51.956;7.670;2022-08-06T06:05:53;16.20;;;14.60;;
28160;SDS011;15448;51.956;7.670;2022-08-06T06:08:23;15.60;;;14.80;;
28160;SDS011;15448;51.956;7.670;2022-08-06T06:10:49;15.57;;;14.67;;
28160;SDS011;15448;51.956;7.670;2022-08-06T06:13:16;15.07;;;14.47;;
28160;SDS011;15448;51.956;7.670;2022-08-06T06:15:43;14.93;;;14.33;;
28160;SDS011;15448;51.956;7.670;2022-08-06T06:18:18;14.90;;;14.30;;
28160;SDS011;15448;51.956;7.670;2022-08-06T06:21:22;15.53;;;14.63;;
28160;SDS011;15448;51.956;7.670;2022-08-06T06:26:57;14.80;;;14.20;;
28160;SDS011;15448;51.956;7.670;2022-08-06T06:29:40;15.80;;;14.80;;
28160;SDS011;15448;51.956;7.670;2022-08-06T06:32:24;15.13;;;14.40;;
28160;SDS011;15448;51.956;7.670;2022-08-06T06:35:20;15.83;;;14.70;;
28160;SDS011;15448;51.956;7.670;2022-08-06T06:40:39;16.60;;;15.43;;
28160;SDS011;15448;51.956;7.670;2022-08-06T06:43:33;15.20;;;14.50;;
28160;SDS011;15448;51.956;7.670;2022-08-06T06:46:02;15.43;;;14.53;;
28160;SDS011;15448;51.956;7.670;2022-08-06T06:48:46;14.90;;;14.10;;
28160;SDS011;15448;51.956;7.670;2022-08-06T06:51:39;14.67;;;14.07;;
28160;SDS011;15448;51.956;7.670;2022-08-06T06:54:09;14.70;;;14.10;;
28160;SDS011;15448;51.956;7.670;2022-08-06T06:56:44;15.13;;;14.00;;
28160;SDS011;15448;51.956;7.670;2022-08-06T06:59:16;14.87;;;14.00;;
28160;SDS011;15448;51.956;7.670;2022-08-06T07:01:45;14.53;;;13.93;;
28160;SDS011;15448;51.956;7.670;2022-08-06T07:04:13;15.37;;;14.47;;
28160;SDS011;15448;51.956;7.670;2022-08-06T07:06:40;16.23;;;14.63;;
28160;SDS011;15448;51.956;7.670;2022-08-06T07:09:09;15.10;;;14.33;;
28160;SDS011;15448;51.956;7.670;2022-08-06T07:11:43;15.60;;;14.60;;
28160;SDS011;15448;51.956;7.670;2022-08-06T07:14:10;20.97;;;14.50;;
28160;SDS011;15448;51.956;7.670;2022-08-06T07:16:36;14.57;;;13.90;;
28160;SDS011;15448;51.956;7.670;2022-08-06T07:19:04;15.10;;;14.20;;
28160;SDS011;15448;51.956;7.670;2022-08-06T07:21:32;14.87;;;14.37;;
28160;SDS011;15448;51.956;7.670;2022-08-06T07:23:59;15.10;;;14.40;;
28160;SDS011;15448;51.956;7.670;2022-08-06T07:26:25;15.53;;;15.03;;
28160;SDS011;15448;51.956;7.670;2022-08-06T07:28:53;14.47;;;13.87;;
28160;SDS011;15448;51.956;7.670;2022-08-06T07:31:22;14.60;;;14.10;;
28160;SDS011;15448;51.956;7.670;2022-08-06T07:33:49;14.10;;;13.60;;
28160;SDS011;15448;51.956;7.670;2022-08-06T07:36:16;15.00;;;14.30;;
28160;SDS011;15448;51.956;7.670;2022-08-06T07:38:43;15.23;;;14.53;;
28160;SDS011;15448;51.956;7.670;2022-08-06T07:41:09;14.87;;;14.10;;
28160;SDS011;15448;51.956;7.670;2022-08-06T07:43:42;14.67;;;13.90;;
28160;SDS011;15448;51.956;7.670;2022-08-06T07:46:13;15.17;;;14.40;;
28160;SDS011;15448;51.956;7.670;2022-08-06T07:48:45;15.00;;;14.40;;
28160;SDS011;15448;51.956;7.670;2022-08-06T07:51:14;16.03;;;15.30;;
28160;SDS011;15448;51.956;7.670;2022-08-06T07:53:42;15.47;;;14.57;;
28160;SDS011;15448;51.956;7.670;2022-08-06T07:56:09;15.10;;;14.60;;
28160;SDS011;15448;51.956;7.670;2022-08-06T07:58:36;15.53;;;14.93;;
28160;SDS011;15448;51.956;7.670;2022-08-06T08:01:02;15.30;;;14.50;;
28160;SDS011;15448;51.956;7.670;2022-08-06T08:03:30;15.20;;;14.50;;
28160;SDS011;15448;51.956;7.670;2022-08-06T08:06:17;15.83;;;14.60;;
28160;SDS011;15448;51.956;7.670;2022-08-06T08:08:42;14.50;;;14.00;;
28160;SDS011;15448;51.956;7.670;2022-08-06T08:11:09;15.60;;;14.70;;
28160;SDS011;15448;51.956;7.670;2022-08-06T08:13:37;13.70;;;13.10;;
28160;SDS011;15448;51.956;7.670;2022-08-06T08:16:03;15.70;;;15.10;;
28160;SDS011;15448;51.956;7.670;2022-08-06T08:18:29;14.70;;;13.90;;
28160;SDS011;15448;51.956;7.670;2022-08-06T08:20:56;15.40;;;14.43;;
28160;SDS011;15448;51.956;7.670;2022-08-06T08:23:23;15.63;;;14.70;;
28160;SDS011;15448;51.956;7.670;2022-08-06T08:25:49;14.67;;;14.00;;
28160;SDS011;15448;51.956;7.670;2022-08-06T08:28:14;14.70;;;14.20;;
28160;SDS011;15448;51.956;7.670;2022-08-06T08:30:40;14.70;;;14.20;;
28160;SDS011;15448;51.956;7.670;2022-08-06T08:33:06;13.70;;;13.20;;
28160;SDS011;15448;51.956;7.670;2022-08-06T08:35:32;14.73;;;13.93;;
28160;SDS011;15448;51.956;7.670;2022-08-06T08:37:58;14.20;;;13.70;;
28160;SDS011;15448;51.956;7.670;2022-08-06T08:40:23;13.87;;;13.20;;
28160;SDS011;15448;51.956;7.670;2022-08-06T08:42:51;14.63;;;13.20;;
28160;SDS011;15448;51.956;7.670;2022-08-06T08:45:20;13.50;;;13.00;;
28160;SDS011;15448;51.956;7.670;2022-08-06T08:47:49;12.93;;;12.33;;
28160;SDS011;15448;51.956;7.670;2022-08-06T08:50:18;13.10;;;12.60;;
28160;SDS011;15448;51.956;7.670;2022-08-06T08:52:45;13.53;;;12.77;;
28160;SDS011;15448;51.956;7.670;2022-08-06T08:55:14;13.93;;;13.33;;
28160;SDS011;15448;51.956;7.670;2022-08-06T08:57:41;14.83;;;13.80;;
28160;SDS011;15448;51.956;7.670;2022-08-06T09:00:07;13.27;;;12.50;;
28160;SDS011;15448;51.956;7.670;2022-08-06T09:02:33;14.20;;;13.20;;
28160;SDS011;15448;51.956;7.670;2022-08-06T09:05:01;14.10;;;13.37;;
28160;SDS011;15448;51.956;7.670;2022-08-06T09:07:27;14.40;;;13.60;;
28160;SDS011;15448;51.956;7.670;2022-08-06T09:09:53;13.10;;;12.70;;
28160;SDS011;15448;51.956;7.670;2022-08-06T09:12:19;14.13;;;13.63;;
28160;SDS011;15448;51.956;7.670;2022-08-06T09:14:45;14.20;;;13.50;;
28160;SDS011;15448;51.956;7.670;2022-08-06T09:17:11;13.80;;;13.30;;
28160;SDS011;15448;51.956;7.670;2022-08-06T09:19:37;14.80;;;14.20;;
28160;SDS011;15448;51.956;7.670;2022-08-06T09:22:03;14.17;;;13.57;;
28160;SDS011;15448;51.956;7.670;2022-08-06T09:24:28;13.60;;;13.20;;
28160;SDS011;15448;51.956;7.670;2022-08-06T09:27:08;14.00;;;13.50;;
28160;SDS011;15448;51.956;7.670;2022-08-06T09:29:36;14.63;;;14.03;;
28160;SDS011;15448;51.956;7.670;2022-08-06T09:32:12;14.30;;;13.50;;
28160;SDS011;15448;51.956;7.670;2022-08-06T09:34:39;13.13;;;12.20;;
28160;SDS011;15448;51.956;7.670;2022-08-06T09:37:05;13.90;;;13.10;;
28160;SDS011;15448;51.956;7.670;2022-08-06T09:39:38;13.83;;;13.20;;
28160;SDS011;15448;51.956;7.670;2022-08-06T09:42:06;13.20;;;12.70;;
28160;SDS011;15448;51.956;7.670;2022-08-06T09:44:32;31.93;;;13.80;;
28160;SDS011;15448;51.956;7.670;2022-08-06T09:46:58;13.03;;;12.53;;
28160;SDS011;15448;51.956;7.670;2022-08-06T09:49:25;13.90;;;13.30;;
28160;SDS011;15448;51.956;7.670;2022-08-06T09:51:51;14.40;;;13.73;;
28160;SDS011;15448;51.956;7.670;2022-08-06T09:54:35;13.27;;;12.73;;
28160;SDS011;15448;51.956;7.670;2022-08-06T09:57:02;13.70;;;13.00;;
28160;SDS011;15448;51.956;7.670;2022-08-06T09:59:27;13.47;;;12.97;;
28160;SDS011;15448;51.956;7.670;2022-08-06T10:01:53;14.00;;;13.40;;
28160;SDS011;15448;51.956;7.670;2022-08-06T10:04:26;13.37;;;12.77;;
28160;SDS011;15448;51.956;7.670;2022-08-06T10:06:56;13.63;;;13.13;;
28160;SDS011;15448;51.956;7.670;2022-08-06T10:09:24;14.83;;;13.70;;
28160;SDS011;15448;51.956;7.670;2022-08-06T10:11:50;13.80;;;13.40;;
28160;SDS011;15448;51.956;7.670;2022-08-06T10:14:25;12.90;;;12.40;;
28160;SDS011;15448;51.956;7.670;2022-08-06T10:17:02;17.87;;;13.80;;
28160;SDS011;15448;51.956;7.670;2022-08-06T10:19:29;12.80;;;12.30;;
28160;SDS011;15448;51.956;7.670;2022-08-06T10:21:55;12.93;;;12.30;;
28160;SDS011;15448;51.956;7.670;2022-08-06T10:24:51;12.70;;;12.30;;
28160;SDS011;15448;51.956;7.670;2022-08-06T10:27:20;13.33;;;12.63;;
28160;SDS011;15448;51.956;7.670;2022-08-06T10:29:52;14.23;;;13.43;;
28160;SDS011;15448;51.956;7.670;2022-08-06T10:32:26;14.53;;;13.53;;
28160;SDS011;15448;51.956;7.670;2022-08-06T10:34:56;13.33;;;12.93;;
28160;SDS011;15448;51.956;7.670;2022-08-06T10:37:25;14.40;;;13.40;;
28160;SDS011;15448;51.956;7.670;2022-08-06T10:39:53;13.70;;;13.10;;
28160;SDS011;15448;51.956;7.670;2022-08-06T10:42:21;13.90;;;12.83;;
28160;SDS011;15448;51.956;7.670;2022-08-06T10:44:49;15.00;;;13.70;;
28160;SDS011;15448;51.956;7.670;2022-08-06T10:47:15;12.60;;;12.20;;
28160;SDS011;15448;51.956;7.670;2022-08-06T10:49:41;13.00;;;12.50;;
28160;SDS011;15448;51.956;7.670;2022-08-06T10:52:09;12.50;;;11.77;;
28160;SDS011;15448;51.956;7.670;2022-08-06T10:54:36;12.90;;;12.50;;
28160;SDS011;15448;51.956;7.670;2022-08-06T10:57:02;13.17;;;12.50;;
28160;SDS011;15448;51.956;7.670;2022-08-06T10:59:27;23.90;;;12.93;;
28160;SDS011;15448;51.956;7.670;2022-08-06T11:02:01;13.40;;;12.60;;
28160;SDS011;15448;51.956;7.670;2022-08-06T11:04:41;13.90;;;13.20;;
28160;SDS011;15448;51.956;7.670;2022-08-06T11:10:05;29.63;;;15.77;;
28160;SDS011;15448;51.956;7.670;2022-08-06T11:12:57;15.83;;;13.60;;
28160;SDS011;15448;51.956;7.670;2022-08-06T11:15:34;19.13;;;15.93;;
28160;SDS011;15448;51.956;7.670;2022-08-06T11:18:07;20.03;;;15.40;;
28160;SDS011;15448;51.956;7.670;2022-08-06T11:23:44;23.03;;;15.27;;
28160;SDS011;15448;51.956;7.670;2022-08-06T11:25:53;56.90;;;15.60;;
28160;SDS011;15448;51.956;7.670;2022-08-06T11:30:59;30.27;;;13.70;;
28160;SDS011;15448;51.956;7.670;2022-08-06T11:35:57;14.90;;;14.03;;
28160;SDS011;15448;51.956;7.670;2022-08-06T11:39:06;14.40;;;13.70;;
28160;SDS011;15448;51.956;7.670;2022-08-06T11:41:22;14.63;;;13.77;;
28160;SDS011;15448;51.956;7.670;2022-08-06T11:46:31;12.80;;;12.30;;
28160;SDS011;15448;51.956;7.670;2022-08-06T11:59:34;14.17;;;13.57;;
28160;SDS011;15448;51.956;7.670;2022-08-06T12:02:09;14.90;;;14.30;;
28160;SDS011;15448;51.956;7.670;2022-08-06T12:07:20;13.47;;;12.87;;
28160;SDS011;15448;51.956;7.670;2022-08-06T12:09:57;13.50;;;13.00;;
28160;SDS011;15448;51.956;7.670;2022-08-06T12:20:29;13.10;;;12.70;;
28160;SDS011;15448;51.956;7.670;2022-08-06T12:23:06;13.43;;;12.93;;
28160;SDS011;15448;51.956;7.670;2022-08-06T12:25:40;13.50;;;12.80;;
28160;SDS011;15448;51.956;7.670;2022-08-06T12:28:07;13.30;;;12.70;;
28160;SDS011;15448;51.956;7.670;2022-08-06T12:30:45;13.10;;;12.70;;
28160;SDS011;15448;51.956;7.670;2022-08-06T12:33:16;14.30;;;13.17;;
28160;SDS011;15448;51.956;7.670;2022-08-06T12:35:52;13.10;;;12.60;;
28160;SDS011;15448;51.956;7.670;2022-08-06T12:38:29;13.10;;;12.30;;
28160;SDS011;15448;51.956;7.670;2022-08-06T12:41:03;12.77;;;12.37;;
28160;SDS011;15448;51.956;7.670;2022-08-06T12:43:30;15.13;;;14.23;;
28160;SDS011;15448;51.956;7.670;2022-08-06T12:45:57;13.70;;;13.10;;
28160;SDS011;15448;51.956;7.670;2022-08-06T12:48:24;13.50;;;12.80;;
28160;SDS011;15448;51.956;7.670;2022-08-06T12:50:50;14.03;;;13.30;;
28160;SDS011;15448;51.956;7.670;2022-08-06T12:53:28;13.30;;;12.70;;
28160;SDS011;15448;51.956;7.670;2022-08-06T12:55:55;14.57;;;13.37;;
28160;SDS011;15448;51.956;7.670;2022-08-06T12:58:31;14.03;;;13.43;;
28160;SDS011;15448;51.956;7.670;2022-08-06T13:00:59;13.70;;;13.20;;
28160;SDS011;15448;51.956;7.670;2022-08-06T13:03:26;14.43;;;13.77;;
28160;SDS011;15448;51.956;7.670;2022-08-06T13:05:57;14.67;;;13.80;;
28160;SDS011;15448;51.956;7.670;2022-08-06T13:08:25;13.23;;;12.37;;
28160;SDS011;15448;51.956;7.670;2022-08-06T13:10:53;13.40;;;12.83;;
28160;SDS011;15448;51.956;7.670;2022-08-06T13:13:20;12.87;;;12.47;;
28160;SDS011;15448;51.956;7.670;2022-08-06T13:16:03;14.70;;;13.50;;
28160;SDS011;15448;51.956;7.670;2022-08-06T13:18:33;14.13;;;13.63;;
28160;SDS011;15448;51.956;7.670;2022-08-06T13:20:59;64.70;;;18.20;;
28160;SDS011;15448;51.956;7.670;2022-08-06T13:23:34;26.13;;;13.73;;
28160;SDS011;15448;51.956;7.670;2022-08-06T13:26:15;15.00;;;13.20;;
28160;SDS011;15448;51.956;7.670;2022-08-06T13:31:56;15.03;;;14.20;;
28160;SDS011;15448;51.956;7.670;2022-08-06T13:34:44;13.10;;;12.57;;
28160;SDS011;15448;51.956;7.670;2022-08-06T13:37:14;13.93;;;13.27;;
28160;SDS011;15448;51.956;7.670;2022-08-06T13:39:50;13.83;;;13.13;;
28160;SDS011;15448;51.956;7.670;2022-08-06T13:42:16;13.67;;;12.93;;
28160;SDS011;15448;51.956;7.670;2022-08-06T13:44:43;29.90;;;12.40;;
28160;SDS011;15448;51.956;7.670;2022-08-06T13:47:11;12.70;;;12.20;;
28160;SDS011;15448;51.956;7.670;2022-08-06T13:49:42;13.40;;;12.40;;
28160;SDS011;15448;51.956;7.670;2022-08-06T13:52:08;13.40;;;12.80;;
28160;SDS011;15448;51.956;7.670;2022-08-06T13:54:34;13.70;;;13.10;;
28160;SDS011;15448;51.956;7.670;2022-08-06T13:57:00;13.50;;;12.60;;
28160;SDS011;15448;51.956;7.670;2022-08-06T13:59:28;13.60;;;13.00;;
28160;SDS011;15448;51.956;7.670;2022-08-06T14:01:58;13.93;;;13.33;;
28160;SDS011;15448;51.956;7.670;2022-08-06T14:04:26;13.30;;;12.60;;
28160;SDS011;15448;51.956;7.670;2022-08-06T14:06:53;16.03;;;14.77;;
28160;SDS011;15448;51.956;7.670;2022-08-06T14:09:20;14.27;;;13.67;;
28160;SDS011;15448;51.956;7.670;2022-08-06T14:11:51;14.40;;;13.60;;
28160;SDS011;15448;51.956;7.670;2022-08-06T14:14:21;13.77;;;13.20;;
28160;SDS011;15448;51.956;7.670;2022-08-06T14:16:48;14.10;;;13.40;;
28160;SDS011;15448;51.956;7.670;2022-08-06T14:19:14;14.80;;;14.20;;
28160;SDS011;15448;51.956;7.670;2022-08-06T14:21:39;14.23;;;13.43;;
28160;SDS011;15448;51.956;7.670;2022-08-06T14:24:05;13.70;;;13.20;;
28160;SDS011;15448;51.956;7.670;2022-08-06T14:26:31;15.93;;;12.90;;
28160;SDS011;15448;51.956;7.670;2022-08-06T14:28:57;13.13;;;12.67;;
28160;SDS011;15448;51.956;7.670;2022-08-06T14:31:23;14.00;;;13.50;;
28160;SDS011;15448;51.956;7.670;2022-08-06T14:33:49;14.20;;;13.43;;
28160;SDS011;15448;51.956;7.670;2022-08-06T14:36:14;14.20;;;13.50;;
28160;SDS011;15448;51.956;7.670;2022-08-06T14:38:40;23.20;;;15.53;;
28160;SDS011;15448;51.956;7.670;2022-08-06T14:41:05;13.83;;;12.90;;
28160;SDS011;15448;51.956;7.670;2022-08-06T14:43:50;14.73;;;13.63;;
28160;SDS011;15448;51.956;7.670;2022-08-06T14:46:34;15.30;;;14.40;;
28160;SDS011;15448;51.956;7.670;2022-08-06T14:49:01;14.50;;;13.77;;
28160;SDS011;15448;51.956;7.670;2022-08-06T14:51:27;14.23;;;13.43;;
28160;SDS011;15448;51.956;7.670;2022-08-06T14:53:53;14.03;;;13.30;;
28160;SDS011;15448;51.956;7.670;2022-08-06T14:56:19;14.10;;;13.50;;
28160;SDS011;15448;51.956;7.670;2022-08-06T14:58:44;14.90;;;14.20;;
28160;SDS011;15448;51.956;7.670;2022-08-06T15:01:10;15.13;;;14.27;;
28160;SDS011;15448;51.956;7.670;2022-08-06T15:03:35;14.53;;;13.93;;
28160;SDS011;15448;51.956;7.670;2022-08-06T15:06:01;16.03;;;14.93;;
28160;SDS011;15448;51.956;7.670;2022-08-06T15:08:26;16.63;;;15.40;;
28160;SDS011;15448;51.956;7.670;2022-08-06T15:10:52;16.97;;;15.47;;
28160;SDS011;15448;51.956;7.670;2022-08-06T15:13:17;15.40;;;14.73;;
28160;SDS011;15448;51.956;7.670;2022-08-06T15:15:43;15.23;;;14.50;;
28160;SDS011;15448;51.956;7.670;2022-08-06T15:18:09;14.77;;;14.07;;
28160;SDS011;15448;51.956;7.670;2022-08-06T15:20:34;14.83;;;14.23;;
28160;SDS011;15448;51.956;7.670;2022-08-06T15:23:00;15.03;;;14.23;;
28160;SDS011;15448;51.956;7.670;2022-08-06T15:25:25;14.10;;;13.40;;
28160;SDS011;15448;51.956;7.670;2022-08-06T15:27:51;14.00;;;13.33;;
28160;SDS011;15448;51.956;7.670;2022-08-06T15:30:16;15.07;;;13.90;;
28160;SDS011;15448;51.956;7.670;2022-08-06T15:32:44;14.47;;;13.87;;